Time;durP1;ratioP1;P1;durP2;ratioP2;P2;SDS_P1;SDS_P2;PMS_P1;PMS_P2;Temp;Humidity;BMP_temperature;BMP_pressure;BME280_temperature;BME280_humidity;BME280_pressure;Samples;Min_cycle;Max_cycle;Signal;HPM_P1;HPM_P2
2022/08/10 00:01:36;;;;;;;;;;;;;;;19.26;53.51;102601.56;5042634;28;19945;-60
2022/08/10 00:04:01;;;;;;;;;;;;;;;19.29;53.26;102604.03;5048324;28;19917;-59
2022/08/10 00:06:27;;;;;;;;;;;;;;;19.31;53.28;102605.66;5041236;28;20319;-59
2022/08/10 00:08:53;;;;;;;;;;;;;;;19.31;53.31;102604.78;5048101;28;20377;-62
2022/08/10 00:11:18;;;;;;;;;;;;;;;19.30;53.71;102597.72;5046946;28;19917;-59
2022/08/10 00:13:43;;;;;;;;;;;;;;;19.27;53.38;102601.47;5038828;28;19963;-62
2022/08/10 00:16:09;;;;;;;;;;;;;;;19.22;53.80;102600.06;5048217;28;19927;-59
2022/08/10 00:18:34;;;;;;;;;;;;;;;19.16;53.96;102593.31;5044520;28;19925;-57
2022/08/10 00:20:59;;;;;;;;;;;;;;;19.12;53.70;102590.00;5038073;28;19921;-62
2022/08/10 00:23:25;;;;;;;;;;;;;;;19.11;53.99;102598.94;5043841;28;19928;-61
2022/08/10 00:25:50;;;;;;;;;;;;;;;19.05;54.43;102588.66;5038342;28;20403;-60
2022/08/10 00:28:15;;;;;;;;;;;;;;;19.01;54.54;102582.69;5038559;28;20000;-61
2022/08/10 00:30:41;;;;;;;;;;;;;;;18.99;54.53;102579.25;5040448;28;20019;-60
2022/08/10 00:33:06;;;;;;;;;;;;;;;19.00;54.72;102580.09;5046790;28;19967;-63
2022/08/10 00:35:31;;;;;;;;;;;;;;;19.02;54.61;102583.53;5060001;28;19928;-59
2022/08/10 00:37:56;;;;;;;;;;;;;;;19.08;54.68;102582.25;5040291;28;19999;-59
2022/08/10 00:40:22;;;;;;;;;;;;;;;19.10;54.69;102580.34;5035403;28;20034;-59
2022/08/10 00:42:47;;;;;;;;;;;;;;;19.10;54.80;102578.56;5040769;28;19968;-59
2022/08/10 00:45:12;;;;;;;;;;;;;;;19.12;54.87;102581.13;5044626;28;19932;-60
2022/08/10 00:47:38;;;;;;;;;;;;;;;19.16;54.86;102582.63;5044942;28;19928;-60
2022/08/10 00:50:05;;;;;;;;;;;;;;;19.14;54.85;102580.06;5049238;28;19920;-62
2022/08/10 00:52:30;;;;;;;;;;;;;;;19.12;54.89;102571.31;5040481;28;19960;-60
2022/08/10 00:54:56;;;;;;;;;;;;;;;19.10;54.73;102583.91;5041707;28;19964;-62
2022/08/10 00:57:22;;;;;;;;;;;;;;;19.10;54.96;102578.56;5048163;28;20019;-60
2022/08/10 00:59:47;;;;;;;;;;;;;;;19.10;54.73;102575.91;5043038;28;19948;-59
2022/08/10 01:02:13;;;;;;;;;;;;;;;19.13;54.99;102572.16;5037151;28;20059;-60
2022/08/10 01:04:38;;;;;;;;;;;;;;;19.14;55.09;102569.38;5039125;28;20018;-60
2022/08/10 01:07:10;;;;;;;;;;;;;;;19.18;54.91;102570.91;5044134;28;19922;-61
2022/08/10 01:09:35;;;;;;;;;;;;;;;19.15;54.80;102565.75;5039602;28;19925;-61
2022/08/10 01:12:13;;;;;;;;;;;;;;;19.06;54.94;102569.03;5047702;28;19917;-60
2022/08/10 01:14:38;;;;;;;;;;;;;;;18.96;55.41;102563.44;5037847;28;20695;-60
2022/08/10 01:17:09;;;;;;;;;;;;;;;18.88;55.43;102577.22;5048962;28;20507;-58
2022/08/10 01:19:34;;;;;;;;;;;;;;;18.76;55.73;102571.81;5046386;28;21734;-60
2022/08/10 01:22:05;;;;;;;;;;;;;;;18.72;55.86;102565.84;5039983;28;19921;-59
2022/08/10 01:24:30;;;;;;;;;;;;;;;18.64;55.94;102563.66;5043614;28;19952;-60
2022/08/10 01:27:06;;;;;;;;;;;;;;;18.58;56.05;102558.72;5043279;28;20054;-60
2022/08/10 01:29:37;;;;;;;;;;;;;;;18.52;56.35;102565.31;5044418;28;19931;-60
2022/08/10 01:32:04;;;;;;;;;;;;;;;18.53;56.30;102568.81;5036052;28;20042;-59
2022/08/10 01:34:33;;;;;;;;;;;;;;;18.55;56.29;102569.59;5046840;28;19924;-59
2022/08/10 01:37:02;;;;;;;;;;;;;;;18.57;56.14;102563.19;5042734;28;19920;-58
2022/08/10 01:39:31;;;;;;;;;;;;;;;18.59;56.18;102573.78;5045996;28;19924;-61
2022/08/10 01:41:59;;;;;;;;;;;;;;;18.57;56.18;102573.84;5036420;28;19917;-61
2022/08/10 01:44:28;;;;;;;;;;;;;;;18.54;56.21;102568.72;5047015;28;19964;-61
2022/08/10 01:48:27;;;;;;;;;;;;;;;18.49;56.47;102565.50;5042061;28;19917;-61
2022/08/10 01:49:42;;;;;;;;;;;;;;;18.40;56.58;102566.06;5037569;28;19925;-63
2022/08/10 01:52:08;;;;;;;;;;;;;;;18.40;56.73;102566.06;5038202;28;19920;-60
2022/08/10 01:54:33;;;;;;;;;;;;;;;18.45;56.69;102563.97;5045536;28;19924;-60
2022/08/10 01:57:00;;;;;;;;;;;;;;;18.50;56.48;102567.22;5039191;28;20019;-63
2022/08/10 01:59:31;;;;;;;;;;;;;;;18.48;56.19;102561.13;5046073;28;19920;-59
2022/08/10 02:02:08;;;;;;;;;;;;;;;18.38;55.85;102573.28;5039808;28;19924;-61
2022/08/10 02:04:35;;;;;;;;;;;;;;;18.26;56.13;102573.09;5042470;28;19943;-59
2022/08/10 02:07:01;;;;;;;;;;;;;;;18.16;56.53;102573.75;5046663;28;20307;-62
2022/08/10 02:09:29;;;;;;;;;;;;;;;18.12;56.46;102573.94;5042040;28;21356;-59
2022/08/10 02:11:56;;;;;;;;;;;;;;;18.14;56.32;102573.84;5035811;28;19921;-61
2022/08/10 02:14:22;;;;;;;;;;;;;;;18.12;56.63;102575.75;5039434;28;19939;-60
2022/08/10 02:16:49;;;;;;;;;;;;;;;18.10;56.51;102577.63;5039323;28;19928;-59
2022/08/10 02:19:17;;;;;;;;;;;;;;;18.10;56.68;102574.97;5023143;28;20631;-62
2022/08/10 02:21:43;;;;;;;;;;;;;;;18.11;56.71;102572.25;5036414;28;19924;-60
2022/08/10 02:24:11;;;;;;;;;;;;;;;18.12;56.87;102573.06;5037392;28;19943;-61
2022/08/10 02:26:37;;;;;;;;;;;;;;;18.15;56.76;102572.06;5035295;28;19929;-60
2022/08/10 02:29:03;;;;;;;;;;;;;;;18.14;56.84;102568.53;5043842;28;19928;-60
2022/08/10 02:31:28;;;;;;;;;;;;;;;18.12;56.92;102573.06;5043483;28;19917;-63
2022/08/10 02:33:55;;;;;;;;;;;;;;;18.12;56.94;102571.28;5047115;28;19932;-58
2022/08/10 02:36:21;;;;;;;;;;;;;;;18.13;56.92;102572.13;5044739;28;19931;-60
2022/08/10 02:38:51;;;;;;;;;;;;;;;18.08;57.09;102568.88;5049424;28;20383;-61
2022/08/10 02:41:19;;;;;;;;;;;;;;;18.07;57.13;102560.06;5043015;28;20000;-58
2022/08/10 02:43:47;;;;;;;;;;;;;;;18.10;56.98;102559.00;5032180;28;19925;-61
2022/08/10 02:46:15;;;;;;;;;;;;;;;18.13;57.10;102561.47;5040871;28;19933;-59
2022/08/10 02:48:45;;;;;;;;;;;;;;;18.09;57.23;102558.16;5048041;28;20011;-60
2022/08/10 02:51:18;;;;;;;;;;;;;;;18.05;57.31;102561.09;5041631;28;19960;-58
2022/08/10 02:53:46;;;;;;;;;;;;;;;18.04;57.11;102559.38;5042641;28;20008;-56
2022/08/10 02:56:27;;;;;;;;;;;;;;;18.02;57.32;102555.94;5041123;28;19935;-58
2022/08/10 02:59:07;;;;;;;;;;;;;;;18.00;57.45;102558.69;5040773;28;19971;-57
2022/08/10 03:01:37;;;;;;;;;;;;;;;18.00;57.40;102561.34;5035416;28;20007;-56
2022/08/10 03:04:04;;;;;;;;;;;;;;;18.01;57.43;102564.88;5036577;28;20661;-59
2022/08/10 03:06:33;;;;;;;;;;;;;;;18.02;57.59;102570.13;5044841;28;19920;-60
2022/08/10 03:08:59;;;;;;;;;;;;;;;17.98;57.57;102566.78;5051920;28;19917;-57
2022/08/10 03:11:27;;;;;;;;;;;;;;;17.93;57.66;102574.16;5045776;28;19920;-61
2022/08/10 03:13:53;;;;;;;;;;;;;;;17.93;57.81;102571.50;5048423;28;19953;-60
2022/08/10 03:16:20;;;;;;;;;;;;;;;17.92;57.86;102568.94;5044256;28;20384;-57
2022/08/10 03:18:47;;;;;;;;;;;;;;;17.94;57.84;102573.22;5044158;28;19921;-60
2022/08/10 03:21:14;;;;;;;;;;;;;;;18.00;58.08;102573.81;5039105;28;19968;-58
2022/08/10 03:23:40;;;;;;;;;;;;;;;18.04;57.71;102570.03;5047005;28;19974;-57
2022/08/10 03:26:06;;;;;;;;;;;;;;;18.07;57.90;102572.53;5047367;28;19987;-56
2022/08/10 03:28:32;;;;;;;;;;;;;;;18.11;57.60;102571.38;5054802;28;19922;-58
2022/08/10 03:30:59;;;;;;;;;;;;;;;18.13;57.61;102570.34;5046560;28;19917;-59
2022/08/10 03:33:25;;;;;;;;;;;;;;;18.16;57.58;102573.75;5038904;28;20039;-61
2022/08/10 03:35:51;;;;;;;;;;;;;;;18.17;57.57;102578.13;5049615;28;19923;-57
2022/08/10 03:38:16;;;;;;;;;;;;;;;18.15;57.73;102572.91;5046667;28;19921;-57
2022/08/10 03:40:44;;;;;;;;;;;;;;;18.14;57.63;102576.50;5044026;28;20543;-60
2022/08/10 03:43:10;;;;;;;;;;;;;;;18.14;57.95;102581.84;5039660;28;19920;-56
2022/08/10 03:45:36;;;;;;;;;;;;;;;18.13;57.63;102574.78;5046727;28;19933;-59
2022/08/10 03:48:03;;;;;;;;;;;;;;;18.11;57.67;102577.56;5041642;28;19917;-62
2022/08/10 03:50:29;;;;;;;;;;;;;;;18.09;57.72;102581.25;5042304;28;20748;-60
2022/08/10 03:52:55;;;;;;;;;;;;;;;18.06;57.60;102581.47;5052515;28;19917;-58
2022/08/10 03:55:21;;;;;;;;;;;;;;;17.92;57.90;102574.25;5043259;28;19917;-63
2022/08/10 03:57:47;;;;;;;;;;;;;;;17.82;58.16;102587.25;5038640;28;20008;-58
2022/08/10 04:00:14;;;;;;;;;;;;;;;17.78;58.24;102586.59;5029908;28;20003;-60
2022/08/10 04:02:40;;;;;;;;;;;;;;;17.74;58.44;102581.53;5046692;28;19920;-57
2022/08/10 04:05:05;;;;;;;;;;;;;;;17.69;58.19;102587.16;5042420;28;19939;-58
2022/08/10 04:07:31;;;;;;;;;;;;;;;17.66;58.32;102588.16;5039474;28;19921;-57
2022/08/10 04:09:56;;;;;;;;;;;;;;;17.70;58.40;102580.00;5048735;28;19925;-57
2022/08/10 04:12:22;;;;;;;;;;;;;;;17.71;58.47;102582.56;5050171;28;20011;-59
2022/08/10 04:14:47;;;;;;;;;;;;;;;17.74;58.35;102581.53;5041509;28;19928;-56
2022/08/10 04:17:12;;;;;;;;;;;;;;;17.79;58.38;102577.66;5028379;28;19921;-56
2022/08/10 04:19:43;;;;;;;;;;;;;;;17.85;58.20;102580.91;5038087;28;19963;-58
2022/08/10 04:22:12;;;;;;;;;;;;;;;17.90;58.10;102585.00;5044719;28;20303;-62
2022/08/10 04:24:38;;;;;;;;;;;;;;;17.91;58.16;102585.84;5047571;28;19921;-63
2022/08/10 04:27:04;;;;;;;;;;;;;;;17.90;58.27;102584.13;5043373;28;19924;-60
2022/08/10 04:29:29;;;;;;;;;;;;;;;17.90;58.34;102585.00;5038197;28;20671;-60
2022/08/10 04:31:54;;;;;;;;;;;;;;;17.89;58.23;102587.75;5036903;28;19925;-57
2022/08/10 04:34:21;;;;;;;;;;;;;;;17.88;58.25;102584.25;5038898;28;19931;-57
2022/08/10 04:36:48;;;;;;;;;;;;;;;17.89;58.52;102583.31;5045759;28;19931;-59
2022/08/10 04:39:14;;;;;;;;;;;;;;;17.90;58.23;102592.13;5056030;28;19921;-58
2022/08/10 04:41:39;;;;;;;;;;;;;;;17.89;58.41;102593.94;5045333;28;20014;-57
2022/08/10 04:44:04;;;;;;;;;;;;;;;17.90;58.60;102590.34;5050322;28;20355;-60
2022/08/10 04:46:30;;;;;;;;;;;;;;;17.89;58.54;102599.28;5045817;28;19970;-57
2022/08/10 04:48:55;;;;;;;;;;;;;;;17.90;58.53;102589.47;5053435;28;19925;-57
2022/08/10 04:51:20;;;;;;;;;;;;;;;17.88;58.64;102592.22;5038547;28;19964;-59
2022/08/10 04:53:47;;;;;;;;;;;;;;;17.85;58.82;102592.41;5044386;28;20416;-60
2022/08/10 04:56:13;;;;;;;;;;;;;;;17.86;58.92;102588.81;5037410;28;19920;-59
2022/08/10 04:58:38;;;;;;;;;;;;;;;17.89;58.65;102585.97;5043394;28;19929;-56
2022/08/10 05:01:03;;;;;;;;;;;;;;;17.88;58.89;102594.03;5036213;28;21063;-62
2022/08/10 05:03:28;;;;;;;;;;;;;;;17.89;59.01;102601.06;5035813;28;20392;-58
2022/08/10 05:05:54;;;;;;;;;;;;;;;17.91;59.13;102597.38;5041442;28;19929;-58
2022/08/10 05:08:19;;;;;;;;;;;;;;;17.94;58.90;102601.66;5045895;28;20277;-62
2022/08/10 05:10:44;;;;;;;;;;;;;;;17.92;59.10;102593.75;5043692;28;19925;-57
2022/08/10 05:13:10;;;;;;;;;;;;;;;17.91;58.98;102597.38;5045478;28;19943;-59
2022/08/10 05:15:35;;;;;;;;;;;;;;;17.89;58.99;102598.41;5042544;28;19960;-57
2022/08/10 05:18:00;;;;;;;;;;;;;;;17.85;59.48;102596.91;5053896;28;19917;-59
2022/08/10 05:20:26;;;;;;;;;;;;;;;17.86;59.61;102601.25;5050260;28;19924;-57
2022/08/10 05:22:51;;;;;;;;;;;;;;;17.88;59.48;102602.88;5029640;28;19917;-62
2022/08/10 05:25:17;;;;;;;;;;;;;;;17.85;59.89;102602.22;5041135;28;21898;-57
2022/08/10 05:27:43;;;;;;;;;;;;;;;17.81;59.98;102601.53;5035451;28;19916;-61
2022/08/10 05:30:12;;;;;;;;;;;;;;;17.78;60.08;102604.34;5036756;28;19920;-62
2022/08/10 05:32:37;;;;;;;;;;;;;;;17.76;60.45;102595.63;5027441;28;19925;-57
2022/08/10 05:35:04;;;;;;;;;;;;;;;17.81;60.55;102604.19;5032371;28;19921;-57
2022/08/10 05:37:30;;;;;;;;;;;;;;;17.88;60.33;102608.22;5020900;28;19928;-56
2022/08/10 05:39:55;;;;;;;;;;;;;;;17.94;60.25;102607.00;5033947;28;19925;-61
2022/08/10 05:42:22;;;;;;;;;;;;;;;17.97;60.23;102612.13;5033884;28;19967;-61
2022/08/10 05:44:47;;;;;;;;;;;;;;;18.02;60.18;102609.22;5032700;28;21883;-61
2022/08/10 05:47:13;;;;;;;;;;;;;;;18.01;60.34;102612.84;5036928;28;20582;-59
2022/08/10 05:49:38;;;;;;;;;;;;;;;18.03;60.40;102617.13;5035322;28;19929;-62
2022/08/10 05:52:03;;;;;;;;;;;;;;;18.06;60.59;102611.59;5022731;28;19971;-63
2022/08/10 05:54:29;;;;;;;;;;;;;;;18.11;60.60;102614.88;5037803;28;19928;-60
2022/08/10 05:56:55;;;;;;;;;;;;;;;18.13;60.38;102612.97;5040436;28;19947;-57
2022/08/10 05:59:23;;;;;;;;;;;;;;;18.17;60.57;102612.75;5036383;28;20379;-60
2022/08/10 06:01:50;;;;;;;;;;;;;;;18.19;60.50;102616.19;5006650;28;19925;-61
2022/08/10 06:04:18;;;;;;;;;;;;;;;18.18;60.42;102612.69;5036516;28;19999;-61
2022/08/10 06:06:46;;;;;;;;;;;;;;;18.21;60.50;102622.28;5037289;28;19924;-59
2022/08/10 06:09:13;;;;;;;;;;;;;;;18.23;60.41;102621.22;5036824;28;20366;-61
2022/08/10 06:11:39;;;;;;;;;;;;;;;18.25;60.65;102621.16;5040688;28;19920;-59
2022/08/10 06:16:49;;;;;;;;;;;;;;;18.40;60.74;102616.69;5045042;28;20006;-57
2022/08/10 06:19:15;;;;;;;;;;;;;;;18.47;60.50;102615.38;5042902;28;19917;-58
2022/08/10 06:21:42;;;;;;;;;;;;;;;18.51;60.33;102611.56;5043001;28;20457;-57
2022/08/10 06:24:09;;;;;;;;;;;;;;;18.55;60.45;102613.06;5045476;28;19920;-61
2022/08/10 06:26:35;;;;;;;;;;;;;;;18.59;60.31;102613.75;5049939;28;19952;-55
2022/08/10 06:29:05;;;;;;;;;;;;;;;18.67;60.39;102611.47;5047323;28;19975;-57
2022/08/10 06:31:32;;;;;;;;;;;;;;;18.78;60.27;102610.78;5016717;28;20354;-66
2022/08/10 06:33:59;;;;;;;;;;;;;;;18.88;59.78;102611.91;5043124;28;20438;-55
2022/08/10 06:36:25;;;;;;;;;;;;;;;18.93;59.89;102613.44;5045735;28;19925;-62
2022/08/10 06:38:50;;;;;;;;;;;;;;;18.96;59.74;102611.44;5044383;28;19921;-60
2022/08/10 06:41:19;;;;;;;;;;;;;;;18.97;59.63;102617.66;5044246;28;19928;-55
2022/08/10 06:43:48;;;;;;;;;;;;;;;18.99;59.87;102616.59;5047855;28;19963;-59
2022/08/10 06:46:15;;;;;;;;;;;;;;;19.00;59.55;102610.31;5041946;28;19921;-56
2022/08/10 06:48:51;;;;;;;;;;;;;;;19.03;59.68;102614.59;5050105;28;19916;-59
2022/08/10 06:51:25;;;;;;;;;;;;;;;19.04;59.38;102617.16;5039215;28;19964;-60
2022/08/10 06:53:52;;;;;;;;;;;;;;;19.08;59.59;102614.28;5043189;28;20295;-58
2022/08/10 06:56:19;;;;;;;;;;;;;;;19.10;59.71;102610.59;5046558;28;19916;-59
2022/08/10 06:59:04;;;;;;;;;;;;;;;19.14;59.43;102600.56;5046617;28;19920;-59
2022/08/10 07:01:34;;;;;;;;;;;;;;;19.21;59.44;102609.00;5044503;28;19923;-59
2022/08/10 07:04:19;;;;;;;;;;;;;;;19.28;59.19;102605.84;5045492;28;19917;-61
2022/08/10 07:06:47;;;;;;;;;;;;;;;19.38;59.20;102611.44;5042044;28;19932;-56
2022/08/10 07:09:16;;;;;;;;;;;;;;;19.46;59.00;102605.59;5048301;28;19917;-58
2022/08/10 07:11:46;;;;;;;;;;;;;;;19.50;58.69;102602.63;5046222;28;19921;-59
2022/08/10 07:14:12;;;;;;;;;;;;;;;19.57;58.62;102610.22;5047473;28;19979;-59
2022/08/10 07:16:38;;;;;;;;;;;;;;;19.59;58.52;102609.16;5048481;28;19927;-58
2022/08/10 07:19:06;;;;;;;;;;;;;;;19.62;58.62;102602.75;5047519;28;19917;-59
2022/08/10 07:21:32;;;;;;;;;;;;;;;19.65;58.34;102607.88;5051939;28;19920;-59
2022/08/10 07:23:58;;;;;;;;;;;;;;;19.71;58.32;102610.16;5046989;28;19960;-56
2022/08/10 07:26:24;;;;;;;;;;;;;;;19.78;58.46;102608.78;5043691;28;20384;-60
2022/08/10 07:28:50;;;;;;;;;;;;;;;19.86;58.25;102604.75;5052761;28;20515;-59
2022/08/10 07:31:17;;;;;;;;;;;;;;;19.91;57.87;102599.94;5041677;28;19920;-59
2022/08/10 07:33:42;;;;;;;;;;;;;;;19.97;57.86;102607.56;5048621;28;19921;-59
2022/08/10 07:36:09;;;;;;;;;;;;;;;20.02;57.93;102610.78;5048314;28;19928;-60
2022/08/10 07:38:34;;;;;;;;;;;;;;;20.09;57.89;102605.88;5052297;28;19924;-57
2022/08/10 07:41:00;;;;;;;;;;;;;;;20.19;57.81;102611.44;5048332;28;19921;-55
2022/08/10 07:43:30;;;;;;;;;;;;;;;20.22;57.41;102605.84;5052939;28;19929;-55
2022/08/10 07:45:57;;;;;;;;;;;;;;;20.28;57.31;102609.91;5051892;28;19928;-56
2022/08/10 07:48:27;;;;;;;;;;;;;;;20.32;57.37;102606.94;5052081;28;19928;-61
2022/08/10 07:50:56;;;;;;;;;;;;;;;20.37;56.92;102615.47;5053472;28;19955;-61
2022/08/10 07:53:22;;;;;;;;;;;;;;;20.44;57.09;102612.38;5050551;28;19917;-63
2022/08/10 07:55:48;;;;;;;;;;;;;;;20.49;57.06;102608.41;5049838;28;19917;-60
2022/08/10 07:58:16;;;;;;;;;;;;;;;20.53;56.97;102607.25;5054768;28;19924;-60
2022/08/10 08:00:42;;;;;;;;;;;;;;;20.58;56.77;102609.59;5045612;28;19959;-62
2022/08/10 08:03:09;;;;;;;;;;;;;;;20.64;56.43;102605.63;5051635;28;19925;-59
2022/08/10 08:05:35;;;;;;;;;;;;;;;20.71;56.31;102604.22;5046623;28;19931;-61
2022/08/10 08:08:01;;;;;;;;;;;;;;;20.75;56.16;102608.41;5050750;28;19917;-62
2022/08/10 08:10:28;;;;;;;;;;;;;;;20.78;56.14;102602.84;5051136;28;21639;-63
2022/08/10 08:12:56;;;;;;;;;;;;;;;20.82;56.17;102599.00;5053677;28;19920;-63
2022/08/10 08:15:22;;;;;;;;;;;;;;;20.89;55.97;102598.53;5049171;28;19927;-61
2022/08/10 08:17:48;;;;;;;;;;;;;;;20.91;55.97;102594.78;5051226;28;19913;-58
2022/08/10 08:20:16;;;;;;;;;;;;;;;20.97;55.58;102594.31;5050706;28;20045;-60
2022/08/10 08:22:43;;;;;;;;;;;;;;;21.00;55.65;102602.13;5048089;28;19928;-58
2022/08/10 08:25:08;;;;;;;;;;;;;;;21.06;55.60;102600.81;5052518;28;20027;-61
2022/08/10 08:27:35;;;;;;;;;;;;;;;21.11;55.35;102593.31;5050178;28;20115;-56
2022/08/10 08:30:02;;;;;;;;;;;;;;;21.17;55.25;102597.38;5050679;28;19916;-59
2022/08/10 08:32:29;;;;;;;;;;;;;;;21.23;55.52;102593.38;5046874;28;19928;-58
2022/08/10 08:35:08;;;;;;;;;;;;;;;21.27;55.40;102593.03;5046679;28;20593;-56
2022/08/10 08:37:34;;;;;;;;;;;;;;;21.32;55.37;102596.22;5049752;28;20267;-56
2022/08/10 08:40:03;;;;;;;;;;;;;;;21.37;54.82;102595.03;5048901;28;20299;-60
2022/08/10 08:42:32;;;;;;;;;;;;;;;21.42;54.85;102588.38;5050212;28;19921;-60
2022/08/10 08:45:06;;;;;;;;;;;;;;;21.47;54.95;102585.34;5049504;28;19955;-59
2022/08/10 08:47:49;;;;;;;;;;;;;;;21.52;54.85;102585.00;5045945;28;19917;-60
2022/08/10 08:50:23;;;;;;;;;;;;;;;21.58;54.61;102585.38;5046032;28;20423;-61
2022/08/10 08:53:07;;;;;;;;;;;;;;;21.62;54.65;102591.41;5051961;28;20511;-61
2022/08/10 08:55:42;;;;;;;;;;;;;;;21.68;54.60;102590.09;5051280;28;20005;-60
2022/08/10 08:58:19;;;;;;;;;;;;;;;21.73;54.35;102582.53;5045500;28;19935;-58
2022/08/10 09:00:50;;;;;;;;;;;;;;;21.78;54.50;102585.72;5048556;28;20342;-61
2022/08/10 09:03:20;;;;;;;;;;;;;;;21.83;54.11;102590.72;5046802;28;19921;-60
2022/08/10 09:06:17;;;;;;;;;;;;;;;21.85;54.11;102591.47;5047053;28;19971;-59
2022/08/10 09:08:45;;;;;;;;;;;;;;;21.86;54.03;102594.00;5005118;28;19916;-59
2022/08/10 09:11:49;;;;;;;;;;;;;;;21.89;54.02;102588.41;5046011;28;20062;-60
2022/08/10 09:14:17;;;;;;;;;;;;;;;21.95;53.94;102586.25;4990278;28;20377;-60
2022/08/10 09:16:48;;;;;;;;;;;;;;;22.00;53.78;102584.06;4987852;28;19932;-61
2022/08/10 09:19:17;;;;;;;;;;;;;;;22.04;53.64;102585.53;5020997;28;20009;-61
2022/08/10 09:21:50;;;;;;;;;;;;;;;22.06;53.27;102579.09;5049107;28;20296;-60
2022/08/10 09:24:34;;;;;;;;;;;;;;;22.12;53.61;102579.56;5050342;28;20015;-62
2022/08/10 09:26:59;;;;;;;;;;;;;;;;;;5048299;28;19921;-60
2022/08/10 09:29:26;;;;;;;;;;;;;;;22.21;52.85;102579.69;5025581;28;19917;-58
2022/08/10 09:32:08;;;;;;;;;;;;;;;22.27;52.76;102580.19;5047031;28;19917;-63
2022/08/10 09:34:33;;;;;;;;;;;;;;;22.31;52.81;102570.94;5044882;28;20415;-61
2022/08/10 09:37:02;;;;;;;;;;;;;;;22.32;52.49;102573.50;5051980;28;19917;-61
2022/08/10 09:39:36;;;;;;;;;;;;;;;22.36;52.35;102579.47;5053213;28;19928;-61
2022/08/10 09:42:14;;;;;;;;;;;;;;;22.40;51.94;102559.47;5044812;28;20015;-61
2022/08/10 09:44:58;;;;;;;;;;;;;;;22.46;52.10;102564.38;5041039;28;19962;-61
2022/08/10 09:47:30;;;;;;;;;;;;;;;22.51;51.66;102561.34;5050729;28;19927;-58
2022/08/10 09:50:05;;;;;;;;;;;;;;;22.55;51.67;102565.47;5048437;28;20337;-60
2022/08/10 09:52:33;;;;;;;;;;;;;;;22.60;51.23;102559.75;5051409;28;20059;-62
2022/08/10 09:54:59;;;;;;;;;;;;;;;22.63;50.84;102564.84;5052199;28;19939;-63
2022/08/10 09:57:27;;;;;;;;;;;;;;;22.64;50.92;102556.69;5046336;28;19946;-62
2022/08/10 10:00:13;;;;;;;;;;;;;;;22.69;50.43;102551.78;5040810;28;19925;-63
2022/08/10 10:02:49;;;;;;;;;;;;;;;22.76;50.55;102557.53;5041394;28;20031;-59
2022/08/10 10:05:33;;;;;;;;;;;;;;;22.84;50.23;102552.38;5041256;28;20391;-61
2022/08/10 10:08:27;;;;;;;;;;;;;;;22.90;50.37;102539.44;5045129;28;20019;-61
2022/08/10 10:10:56;;;;;;;;;;;;;;;22.98;49.93;102542.31;5011837;28;20032;-60
2022/08/10 10:13:30;;;;;;;;;;;;;;;23.04;49.78;102541.84;5047165;28;20310;-62
2022/08/10 10:16:15;;;;;;;;;;;;;;;23.10;49.68;102543.16;5046171;28;20403;-62
2022/08/10 10:18:53;;;;;;;;;;;;;;;23.17;49.45;102540.81;5048130;28;19920;-62
2022/08/10 10:21:27;;;;;;;;;;;;;;;23.23;49.15;102545.69;5049352;28;19916;-63
2022/08/10 10:24:11;;;;;;;;;;;;;;;23.31;48.82;102542.34;5048174;28;19928;-62
2022/08/10 10:26:51;;;;;;;;;;;;;;;23.40;48.68;102546.97;5046116;28;19924;-63
2022/08/10 10:29:22;;;;;;;;;;;;;;;23.43;48.37;102531.44;5046321;28;19927;-60
2022/08/10 10:31:56;;;;;;;;;;;;;;;23.49;48.06;102529.22;5044324;28;19967;-63
2022/08/10 10:34:24;;;;;;;;;;;;;;;23.54;47.95;102533.22;5049869;28;20007;-63
2022/08/10 10:36:51;;;;;;;;;;;;;;;23.57;47.66;102519.53;5048203;28;20402;-63
2022/08/10 10:39:17;;;;;;;;;;;;;;;23.59;47.62;102520.25;5054621;28;19943;-57
2022/08/10 10:41:47;;;;;;;;;;;;;;;23.64;47.56;102518.97;5048934;28;19929;-59
2022/08/10 10:44:15;;;;;;;;;;;;;;;23.70;47.50;102515.78;5051355;28;19971;-62
2022/08/10 10:46:54;;;;;;;;;;;;;;;23.79;47.20;102514.13;5048671;28;19936;-61
2022/08/10 10:49:41;;;;;;;;;;;;;;;23.83;47.01;102521.78;5050557;28;20443;-59
2022/08/10 10:52:16;;;;;;;;;;;;;;;23.89;46.84;102520.41;5045939;28;19967;-64
2022/08/10 10:54:44;;;;;;;;;;;;;;;23.95;46.72;102519.88;5048488;28;19923;-60
2022/08/10 10:57:16;;;;;;;;;;;;;;;23.98;46.67;102513.41;5048569;28;20372;-60
2022/08/10 10:59:47;;;;;;;;;;;;;;;24.01;46.67;102508.59;5052624;28;19947;-59
2022/08/10 11:02:31;;;;;;;;;;;;;;;24.07;46.44;102511.75;5040730;28;20018;-58
2022/08/10 11:05:09;;;;;;;;;;;;;;;24.14;46.38;102510.19;5045594;28;19925;-60
2022/08/10 11:07:39;;;;;;;;;;;;;;;24.25;46.32;102515.50;5043367;28;19923;-60
2022/08/10 11:10:08;;;;;;;;;;;;;;;24.34;45.89;102509.28;5054126;28;19916;-62
2022/08/10 11:12:36;;;;;;;;;;;;;;;24.43;45.73;102509.47;5042298;28;19924;-60
2022/08/10 11:15:22;;;;;;;;;;;;;;;24.46;45.58;102509.16;5048214;28;19924;-60
2022/08/10 11:18:06;;;;;;;;;;;;;;;24.51;45.56;102512.31;5047509;28;19920;-60
2022/08/10 11:20:35;;;;;;;;;;;;;;;24.58;45.19;102516.13;5038699;28;19919;-61
2022/08/10 11:23:13;;;;;;;;;;;;;;;24.63;45.05;102505.81;5054375;28;20003;-59
2022/08/10 11:25:41;;;;;;;;;;;;;;;24.73;44.76;102502.34;5045569;28;20319;-60
2022/08/10 11:28:30;;;;;;;;;;;;;;;24.76;44.54;102502.03;5046395;28;20012;-59
2022/08/10 11:31:14;;;;;;;;;;;;;;;24.79;44.48;102499.06;5037376;28;19916;-58
2022/08/10 11:33:45;;;;;;;;;;;;;;;24.83;44.00;102497.81;5049015;28;19916;-60
2022/08/10 11:36:24;;;;;;;;;;;;;;;24.86;43.62;102493.97;5043819;28;20002;-62
2022/08/10 11:38:55;;;;;;;;;;;;;;;24.90;43.46;102501.63;5050591;28;20398;-56
2022/08/10 11:41:30;;;;;;;;;;;;;;;24.93;43.24;102490.56;5044490;28;19921;-63
2022/08/10 11:44:06;;;;;;;;;;;;;;;24.96;43.11;102492.13;5044819;28;19927;-59
2022/08/10 11:46:37;;;;;;;;;;;;;;;25.00;43.16;102487.34;5040819;28;19974;-59
2022/08/10 11:49:25;;;;;;;;;;;;;;;25.05;43.09;102485.03;5042333;28;19924;-62
2022/08/10 11:51:55;;;;;;;;;;;;;;;25.12;42.79;102486.19;5039142;28;19963;-60
2022/08/10 11:54:36;;;;;;;;;;;;;;;25.18;42.66;102487.47;5033571;28;20213;-60
2022/08/10 11:57:02;;;;;;;;;;;;;;;25.24;42.44;102485.03;5041830;28;20043;-58
2022/08/10 12:02:14;;;;;;;;;;;;;;;25.36;42.21;102471.41;5024569;28;20399;-58
2022/08/10 12:04:44;;;;;;;;;;;;;;;25.36;42.20;102468.69;5021817;28;21887;-54
2022/08/10 12:07:10;;;;;;;;;;;;;;;25.38;42.28;102469.41;5018373;28;20074;-56
2022/08/10 12:09:36;;;;;;;;;;;;;;;25.40;42.31;102462.91;5028687;28;19925;-58
2022/08/10 12:12:02;;;;;;;;;;;;;;;25.44;42.26;102465.31;5032346;28;19929;-55
2022/08/10 12:14:31;;;;;;;;;;;;;;;25.49;42.26;102466.56;5026607;28;20708;-60
2022/08/10 12:17:02;;;;;;;;;;;;;;;25.56;41.95;102467.72;5036488;28;20315;-58
2022/08/10 12:19:33;;;;;;;;;;;;;;;25.64;41.86;102466.13;5033905;28;19999;-60
2022/08/10 12:22:04;;;;;;;;;;;;;;;25.69;41.92;102462.00;5042578;28;19929;-58
2022/08/10 12:24:29;;;;;;;;;;;;;;;25.74;41.61;102463.38;5044864;28;20398;-58
2022/08/10 12:27:21;;;;;;;;;;;;;;;25.76;41.58;102462.25;5033285;28;20400;-57
2022/08/10 12:29:52;;;;;;;;;;;;;;;25.79;41.55;102467.34;5036521;28;20555;-58
2022/08/10 12:32:28;;;;;;;;;;;;;;;25.83;41.54;102466.03;5036676;28;19921;-58
2022/08/10 12:35:11;;;;;;;;;;;;;;;25.89;41.24;102461.06;5023657;28;19925;-60
2022/08/10 12:37:55;;;;;;;;;;;;;;;25.93;41.26;102449.00;5036206;28;20047;-61
2022/08/10 12:40:27;;;;;;;;;;;;;;;25.99;41.02;102451.94;5040884;28;20334;-61
2022/08/10 12:43:07;;;;;;;;;;;;;;;26.04;40.78;102451.50;5043921;28;19929;-58
2022/08/10 12:45:39;;;;;;;;;;;;;;;26.08;40.86;102443.94;5039277;28;19924;-60
2022/08/10 12:48:31;;;;;;;;;;;;;;;26.14;40.73;102440.69;5034138;28;19917;-61
2022/08/10 12:51:17;;;;;;;;;;;;;;;26.22;40.54;102437.22;5014411;28;20334;-61
2022/08/10 12:54:05;;;;;;;;;;;;;;;26.27;40.26;102438.47;5025201;28;20059;-61
2022/08/10 12:56:33;;;;;;;;;;;;;;;26.28;40.22;102439.31;5030476;28;19921;-59